Time;durP1;ratioP1;P1;durP2;ratioP2;P2;SDS_P1;SDS_P2;PMS_P1;PMS_P2;Temp;Humidity;BMP_temperature;BMP_pressure;BME280_temperature;BME280_humidity;BME280_pressure;Samples;Min_cycle;Max_cycle;Signal;HPM_P1;HPM_P2
2022/11/06 00:01:37;;;;;;;31.47;15.13;;;;;;;;;;5038833;28;20180;-87
2022/11/06 00:04:03;;;;;;;37.47;14.70;;;;;;;;;;5057118;28;20261;-89
2022/11/06 00:06:47;;;;;;;29.87;13.93;;;;;;;;;;5037943;28;20187;-88
2022/11/06 00:09:16;;;;;;;37.27;15.43;;;8.00;99.90;;;;;;5037577;28;20237;-88
2022/11/06 00:11:43;;;;;;;27.30;12.37;;;8.10;99.90;;;;;;5055162;28;20260;-88
2022/11/06 00:14:09;;;;;;;37.83;16.20;;;;;;;;;;5054970;28;20179;-88
2022/11/06 00:16:37;;;;;;;37.30;13.40;;;8.10;99.90;;;;;;5037665;28;20180;-88
2022/11/06 00:19:04;;;;;;;34.03;15.30;;;;;;;;;;5037207;28;20187;-87
2022/11/06 00:21:30;;;;;;;39.50;14.20;;;8.10;99.90;;;;;;5037471;28;20219;-87
2022/11/06 00:23:59;;;;;;;40.83;14.33;;;8.00;99.90;;;;;;5020315;28;20184;-89
2022/11/06 00:26:27;;;;;;;33.47;14.40;;;8.10;99.90;;;;;;5037076;28;20185;-88
2022/11/06 00:28:54;;;;;;;22.00;11.77;;;8.10;99.90;;;;;;5036631;28;20621;-89
2022/11/06 00:31:22;;;;;;;31.13;13.43;;;8.10;99.90;;;;;;5054445;28;20250;-89
2022/11/06 00:33:49;;;;;;;26.00;13.27;;;;;;;;;;5036553;28;20182;-88
2022/11/06 00:36:17;;;;;;;26.70;11.87;;;8.10;99.90;;;;;;5036682;28;20186;-88
2022/11/06 00:38:43;;;;;;;32.87;13.80;;;;;;;;;;5036689;28;20172;-87
2022/11/06 00:41:11;;;;;;;27.23;13.00;;;8.10;99.90;;;;;;5054331;28;20188;-87
2022/11/06 00:43:37;;;;;;;29.67;12.17;;;;;;;;;;5036643;28;20687;-87
2022/11/06 00:46:08;;;;;;;29.83;14.20;;;8.10;99.90;;;;;;5019864;28;20184;-87
2022/11/06 00:48:35;;;;;;;29.17;12.73;;;8.10;99.90;;;;;;5043570;28;20249;-87
2022/11/06 00:51:03;;;;;;;35.60;13.67;;;8.10;99.90;;;;;;5053073;28;20652;-88
2022/11/06 00:53:29;;;;;;;35.60;12.53;;;;;;;;;;5045649;28;20219;-87
2022/11/06 00:55:55;;;;;;;35.03;13.40;;;;;;;;;;5036079;28;20321;-88
2022/11/06 00:58:21;;;;;;;24.23;11.03;;;;;;;;;;5020323;28;20184;-87
2022/11/06 01:00:47;;;;;;;33.70;10.97;;;;;;;;;;5036234;28;20683;-87
2022/11/06 01:03:12;;;;;;;22.87;9.70;;;8.10;99.90;;;;;;5036265;28;20188;-87
2022/11/06 01:05:38;;;;;;;25.70;11.40;;;;;;;;;;5036630;28;20183;-86
2022/11/06 01:08:04;;;;;;;33.40;12.57;;;;;;;;;;5020032;28;20180;-87
2022/11/06 01:10:30;;;;;;;28.43;10.77;;;;;;;;;;5054297;28;20211;-86
2022/11/06 01:12:56;;;;;;;29.17;9.53;;;8.10;99.90;;;;;;5019919;28;20279;-87
2022/11/06 01:15:22;;;;;;;29.03;11.57;;;;;;;;;;5036374;28;20541;-86
2022/11/06 01:17:48;;;;;;;20.20;10.00;;;;;;;;;;5019792;28;20194;-86
2022/11/06 01:20:14;;;;;;;28.07;11.03;;;;;;;;;;5054030;28;20274;-86
2022/11/06 01:22:40;;;;;;;19.40;8.87;;;;;;;;;;5036268;28;20176;-86
2022/11/06 01:25:07;;;;;;;21.50;10.73;;;8.20;99.90;;;;;;5053722;28;20175;-87
2022/11/06 01:27:33;;;;;;;23.10;10.60;;;;;;;;;;5019612;28;20256;-87
2022/11/06 01:29:59;;;;;;;29.53;11.83;;;;;;;;;;5035731;28;20648;-86
2022/11/06 01:32:25;;;;;;;22.97;11.03;;;;;;;;;;5019799;28;20180;-87
2022/11/06 01:34:51;;;;;;;23.83;10.27;;;;;;;;;;5019544;28;20238;-85
2022/11/06 01:37:17;;;;;;;26.90;10.53;;;;;;;;;;5035684;28;20624;-87
2022/11/06 01:39:43;;;;;;;25.73;10.03;;;;;;;;;;5019679;28;20204;-86
2022/11/06 01:42:12;;;;;;;24.13;10.57;;;8.20;99.90;;;;;;5019266;28;20188;-87
2022/11/06 01:44:40;;;;;;;25.87;9.53;;;8.20;99.90;;;;;;5035445;28;20172;-87
2022/11/06 01:47:22;;;;;;;21.87;10.77;;;8.30;99.90;;;;;;5035538;28;20207;-87
2022/11/06 01:49:52;;;;;;;31.97;9.83;;;8.30;99.90;;;;;;5053633;28;20172;-87
2022/11/06 01:52:19;;;;;;;29.57;11.37;;;8.30;99.90;;;;;;5053568;28;20271;-87
2022/11/06 01:54:48;;;;;;;29.77;11.90;;;8.20;99.90;;;;;;5053643;28;20219;-87
2022/11/06 01:57:14;;;;;;;25.87;11.23;;;;;;;;;;5035550;28;20186;-88
2022/11/06 01:59:43;;;;;;;26.73;10.47;;;8.30;99.90;;;;;;5035566;28;20176;-87
2022/11/06 02:02:09;;;;;;;27.23;10.13;;;;;;;;;;5035278;28;20675;-87
2022/11/06 02:04:42;;;;;;;30.80;10.00;;;8.30;99.90;;;;;;5035817;28;20180;-87
2022/11/06 02:07:08;;;;;;;22.47;8.63;;;;;;;;;;5035290;28;20203;-87
2022/11/06 02:09:34;;;;;;;20.63;9.60;;;;;;;;;;5035733;28;20274;-87
2022/11/06 02:12:09;;;;;;;26.00;10.47;;;8.30;99.90;;;;;;5034896;28;20218;-87
2022/11/06 02:14:59;;;;;;;25.57;11.30;;;8.30;99.90;;;;;;5035679;28;20179;-87
2022/11/06 02:17:40;;;;;;;29.73;11.07;;;8.30;99.90;;;;;;5035585;28;20180;-87
2022/11/06 02:20:20;;;;;;;26.50;10.73;;;8.30;99.90;;;;;;5035284;28;20659;-87
2022/11/06 02:23:14;;;;;;;23.77;10.37;;;8.30;99.90;;;;;;5053306;28;20160;-87
2022/11/06 02:26:00;;;;;;;20.57;9.73;;;8.40;99.90;;;;;;5035642;28;20266;-86
2022/11/06 02:28:46;;;;;;;22.87;9.53;;;8.30;99.90;;;;;;5034312;28;20191;-86
2022/11/06 02:31:17;;;;;;;24.10;9.83;;;8.40;99.90;;;;;;5035123;28;20203;-87
2022/11/06 02:33:54;;;;;;;23.10;11.20;;;8.40;99.90;;;;;;5035214;28;20168;-87
2022/11/06 02:36:26;;;;;;;22.90;10.10;;;8.40;99.90;;;;;;5052829;28;20163;-87
2022/11/06 02:38:58;;;;;;;39.60;11.83;;;8.40;99.90;;;;;;5052814;28;20210;-86
2022/11/06 02:41:28;;;;;;;32.77;9.63;;;8.40;99.90;;;;;;5034918;28;20648;-86
2022/11/06 02:43:56;;;;;;;23.97;9.63;;;8.40;99.90;;;;;;5035261;28;20230;-86
2022/11/06 02:46:34;;;;;;;24.67;11.10;;;8.40;99.90;;;;;;5034886;28;20199;-86
2022/11/06 02:49:24;;;;;;;22.27;9.90;;;8.40;99.90;;;;;;5053127;28;20709;-87
2022/11/06 02:51:55;;;;;;;25.10;10.80;;;8.40;99.90;;;;;;5052448;28;20220;-86
2022/11/06 02:54:23;;;;;;;21.10;9.77;;;8.40;99.90;;;;;;5034707;28;20175;-86
2022/11/06 02:56:51;;;;;;;29.57;9.43;;;8.50;99.90;;;;;;5035377;28;20274;-87
2022/11/06 02:59:24;;;;;;;29.47;10.33;;;8.40;99.90;;;;;;5034873;28;20525;-87
2022/11/06 03:02:02;;;;;;;17.53;8.13;;;8.40;99.90;;;;;;5052577;28;20187;-87
2022/11/06 03:04:49;;;;;;;27.00;9.07;;;8.50;99.90;;;;;;5052623;28;20164;-87
2022/11/06 03:07:15;;;;;;;23.33;9.27;;;;;;;;;;5034706;28;20192;-87
2022/11/06 03:09:42;;;;;;;17.40;7.20;;;8.50;99.90;;;;;;5034809;28;20641;-87
2022/11/06 03:12:24;;;;;;;21.77;7.90;;;8.40;99.90;;;;;;5034680;28;20212;-88
2022/11/06 03:14:50;;;;;;;25.17;8.60;;;;;;;;;;5035078;28;20179;-87
2022/11/06 03:17:42;;;;;;;28.07;9.63;;;8.50;99.90;;;;;;5034523;28;20549;-88
2022/11/06 03:20:22;;;;;;;20.20;9.43;;;8.60;99.90;;;;;;5034883;28;20203;-89
2022/11/06 03:23:02;;;;;;;23.70;8.50;;;8.50;99.90;;;;;;5034829;28;20549;-88
2022/11/06 03:25:38;;;;;;;20.40;8.80;;;8.50;99.90;;;;;;5037585;28;20610;-88
2022/11/06 03:28:20;;;;;;;21.30;8.43;;;8.50;99.90;;;;;;5038484;28;20658;-88
2022/11/06 03:30:53;;;;;;;17.17;6.80;;;8.50;99.90;;;;;;5038109;28;20215;-87
2022/11/06 03:33:19;;;;;;;32.70;10.60;;;;;;;;;;5055809;28;20182;-88
2022/11/06 03:35:54;;;;;;;19.80;7.90;;;8.50;99.90;;;;;;5038000;28;20179;-88
2022/11/06 03:38:32;;;;;;;21.33;8.90;;;8.40;99.90;;;;;;5056088;28;20171;-88
2022/11/06 03:41:03;;;;;;;16.20;6.37;;;8.40;99.90;;;;;;5038169;28;20183;-88
2022/11/06 03:43:34;;;;;;;22.77;7.77;;;8.50;99.90;;;;;;5037780;28;20218;-88
2022/11/06 03:46:04;;;;;;;17.93;7.43;;;8.50;99.90;;;;;;5038145;28;20222;-88
2022/11/06 03:48:36;;;;;;;16.90;7.50;;;8.50;99.90;;;;;;5037478;28;20187;-88
2022/11/06 03:51:08;;;;;;;15.97;7.80;;;8.50;99.90;;;;;;5055767;28;20202;-88
2022/11/06 03:53:58;;;;;;;18.97;6.90;;;8.50;99.90;;;;;;5037550;28;20175;-89
2022/11/06 03:56:49;;;;;;;16.57;7.70;;;8.50;99.90;;;;;;5037351;28;20227;-88
2022/11/06 03:59:21;;;;;;;9.97;6.00;;;8.50;99.90;;;;;;5055255;28;20236;-89
2022/11/06 04:01:47;;;;;;;16.00;5.67;;;;;;;;;;5055715;28;20171;-88
2022/11/06 04:04:27;;;;;;;12.83;7.00;;;8.70;99.90;;;;;;5021372;28;20249;-89
2022/11/06 04:07:08;;;;;;;18.03;5.57;;;8.50;99.90;;;;;;5037803;28;20179;-88
2022/11/06 04:15:14;;;;;;;20.23;8.77;;;8.50;99.90;;;;;;5045471;28;20203;-88
2022/11/06 04:17:43;;;;;;;19.50;6.87;;;;;;;;;;5037558;28;20172;-88
2022/11/06 04:21:20;;;;;;;20.23;8.07;;;8.50;99.90;;;;;;5037222;28;20183;-89
2022/11/06 04:23:10;;;;;;;26.03;7.13;;;8.40;99.90;;;;;;5054801;28;20667;-88
2022/11/06 04:29:02;;;;;;;22.00;7.07;;;8.50;99.90;;;;;;5055054;28;20632;-88
2022/11/06 04:31:46;;;;;;;15.10;6.93;;;8.50;99.90;;;;;;5036937;28;20207;-88
2022/11/06 04:34:53;;;;;;;14.67;6.90;;;8.50;99.90;;;;;;5037094;28;20194;-89
2022/11/06 04:37:48;;;;;;;20.87;7.73;;;8.50;99.90;;;;;;5006482;28;20647;-89
2022/11/06 04:40:14;;;;;;;18.27;5.40;;;;;;;;;;5063036;28;20164;-88
2022/11/06 04:42:40;;;;;;;12.10;5.90;;;;;;;;;;5044177;28;20219;-87
2022/11/06 04:45:14;;;;;;;13.57;7.00;;;8.50;99.90;;;;;;5062441;28;20172;-88
2022/11/06 04:47:41;;;;;;;13.87;6.30;;;8.50;99.90;;;;;;5049122;28;20171;-88
2022/11/06 04:50:08;;;;;;;13.77;5.83;;;;;;;;;;5045563;28;20254;-88
2022/11/06 04:52:35;;;;;;;12.90;5.87;;;8.50;99.90;;;;;;5061520;28;20200;-88
2022/11/06 04:55:02;;;;;;;14.47;6.83;;;;;;;;;;5078702;28;20245;-88
2022/11/06 04:57:28;;;;;;;15.93;5.40;;;;;;;;;;5056936;28;20699;-88
2022/11/06 04:59:55;;;;;;;22.37;6.60;;;;;;;;;;5049869;28;20226;-88
2022/11/06 05:02:21;;;;;;;22.07;7.57;;;;;;;;;;5067025;28;20180;-90
2022/11/06 05:04:47;;;;;;;19.63;6.37;;;;;;;;;;5058967;28;20194;-87
2022/11/06 05:07:14;;;;;;;14.70;6.67;;;;;;;;;;5061542;28;20168;-88
2022/11/06 05:09:40;;;;;;;14.33;6.67;;;;;;;;;;5076771;28;20167;-89
2022/11/06 05:12:06;;;;;;;17.87;6.33;;;;;;;;;;5038324;28;20282;-88
2022/11/06 05:14:33;;;;;;;11.13;6.43;;;8.50;99.90;;;;;;5021297;28;20189;-89
2022/11/06 05:16:59;;;;;;;20.93;7.17;;;;;;;;;;5022264;28;20191;-88
2022/11/06 05:19:25;;;;;;;21.33;8.13;;;;;;;;;;5037856;28;20179;-88
2022/11/06 05:24:36;;;;;;;12.47;5.90;;;;;;;;;;5050288;28;20214;-88
2022/11/06 05:27:02;;;;;;;17.67;7.10;;;;;;;;;;5038499;28;20250;-88
2022/11/06 05:29:30;;;;;;;18.70;5.97;;;8.50;99.90;;;;;;5060729;28;20171;-88
2022/11/06 05:31:56;;;;;;;15.43;6.83;;;;;;;;;;5024783;28;20231;-87
2022/11/06 05:34:22;;;;;;;13.17;5.70;;;;;;;;;;5058236;28;20272;-86
2022/11/06 05:36:48;;;;;;;12.03;6.23;;;8.50;99.90;;;;;;5052807;28;20176;-87
2022/11/06 05:39:14;;;;;;;12.30;5.13;;;;;;;;;;5060848;28;20727;-87
2022/11/06 05:41:40;;;;;;;15.93;5.90;;;;;;;;;;5023640;28;20211;-88
2022/11/06 05:44:06;;;;;;;17.10;6.27;;;;;;;;;;5038433;28;20203;-89
2022/11/06 05:46:32;;;;;;;29.03;7.27;;;;;;;;;;5037237;28;20200;-88
2022/11/06 05:48:58;;;;;;;12.67;5.53;;;;;;;;;;5020741;28;20249;-89
2022/11/06 05:51:24;;;;;;;20.30;7.07;;;;;;;;;;5030388;28;20294;-90
2022/11/06 05:53:53;;;;;;;12.13;5.23;;;8.50;99.90;;;;;;5022324;28;20195;-90
2022/11/06 05:56:19;;;;;;;9.90;4.30;;;;;;;;;;5050127;28;20758;-87
2022/11/06 05:58:45;;;;;;;12.27;6.17;;;;;;;;;;5043376;28;20715;-88
2022/11/06 06:01:12;;;;;;;16.77;5.73;;;8.60;99.90;;;;;;5032779;28;20196;-87
2022/11/06 06:03:38;;;;;;;10.93;5.00;;;;;;;;;;5032526;28;20268;-90
2022/11/06 06:06:04;;;;;;;8.80;4.93;;;;;;;;;;5033238;28;20648;-88
2022/11/06 06:08:33;;;;;;;15.77;6.57;;;;;;;;;;5016275;28;20199;-88
2022/11/06 06:10:59;;;;;;;11.33;4.43;;;;;;;;;;5033213;28;20215;-88
2022/11/06 06:13:25;;;;;;;16.10;6.43;;;;;;;;;;5014808;28;20275;-87
2022/11/06 06:15:51;;;;;;;14.03;6.30;;;;;;;;;;5050229;28;20188;-89
2022/11/06 06:18:17;;;;;;;16.67;7.30;;;;;;;;;;5048613;28;20267;-89
2022/11/06 06:20:48;;;;;;;18.27;6.67;;;8.60;99.90;;;;;;5032491;28;20298;-88
2022/11/06 06:23:14;;;;;;;15.57;5.67;;;;;;;;;;5028362;28;20718;-87
2022/11/06 06:25:40;;;;;;;20.40;5.63;;;;;;;;;;5031137;28;20192;-87
2022/11/06 06:28:06;;;;;;;12.73;6.03;;;;;;;;;;5009020;28;20245;-88
2022/11/06 06:30:34;;;;;;;13.37;5.03;;;;;;;;;;5021710;28;20222;-87
2022/11/06 06:33:04;;;;;;;10.90;4.70;;;8.60;99.90;;;;;;5031476;28;20251;-85
2022/11/06 06:35:30;;;;;;;16.77;5.50;;;;;;;;;;5033647;28;20310;-86
2022/11/06 06:37:56;;;;;;;14.17;5.93;;;;;;;;;;5017213;28;20231;-88
2022/11/06 06:40:22;;;;;;;10.87;5.03;;;;;;;;;;5033457;28;20278;-87
2022/11/06 06:42:48;;;;;;;6.47;4.30;;;;;;;;;;5034872;28;20180;-87
2022/11/06 06:45:15;;;;;;;12.57;5.50;;;;;;;;;;5042831;28;20226;-88
2022/11/06 06:47:43;;;;;;;19.10;5.87;;;;;;;;;;5046557;28;20183;-89
2022/11/06 06:50:09;;;;;;;12.67;5.67;;;;;;;;;;5031693;28;20524;-87
2022/11/06 06:52:37;;;;;;;13.10;5.80;;;;;;;;;;5025775;28;20183;-87
2022/11/06 06:55:04;;;;;;;13.57;5.40;;;8.70;99.90;;;;;;5024924;28;20233;-86
2022/11/06 06:57:30;;;;;;;9.23;5.33;;;;;;;;;;5027583;28;20554;-86
2022/11/06 06:59:56;;;;;;;9.70;4.50;;;;;;;;;;5029881;28;20246;-87
2022/11/06 07:02:22;;;;;;;9.50;5.17;;;;;;;;;;5033312;28;20215;-86
2022/11/06 07:04:50;;;;;;;10.40;5.13;;;8.70;99.90;;;;;;5032710;28;20224;-87
2022/11/06 07:07:16;;;;;;;19.30;5.20;;;8.70;99.90;;;;;;5032482;28;20181;-87
2022/11/06 07:09:42;;;;;;;9.50;5.03;;;;;;;;;;4989479;28;20192;-86
2022/11/06 07:12:08;;;;;;;12.97;6.93;;;;;;;;;;5033949;28;20723;-87
2022/11/06 07:14:34;;;;;;;12.27;5.43;;;;;;;;;;5016718;28;20188;-86
2022/11/06 07:17:00;;;;;;;12.20;5.77;;;8.80;99.90;;;;;;5030859;28;20203;-87
2022/11/06 07:19:26;;;;;;;15.93;5.60;;;;;;;;;;5030414;28;20184;-88
2022/11/06 07:21:54;;;;;;;15.63;5.47;;;8.80;99.90;;;;;;5015348;28;20188;-88
2022/11/06 07:24:20;;;;;;;9.00;4.30;;;8.90;99.90;;;;;;5032252;28;20184;-88
2022/11/06 07:26:46;;;;;;;10.60;5.10;;;8.90;99.90;;;;;;5029398;28;20239;-86
2022/11/06 07:29:12;;;;;;;10.60;5.03;;;;;;;;;;5015918;28;20638;-87
2022/11/06 07:31:37;;;;;;;12.43;6.13;;;8.80;99.90;;;;;;5029431;28;20257;-89
2022/11/06 07:34:03;;;;;;;15.27;5.10;;;;;;;;;;5012308;28;20583;-91
2022/11/06 07:36:34;;;;;;;10.77;4.57;;;8.90;99.90;;;;;;5031873;28;20188;-88
2022/11/06 07:39:00;;;;;;;13.43;5.63;;;8.90;99.90;;;;;;5030883;28;20218;-87
2022/11/06 07:41:26;;;;;;;12.63;5.97;;;;;;;;;;5029153;28;20265;-87
2022/11/06 07:43:51;;;;;;;11.93;6.97;;;9.00;99.90;;;;;;5032534;28;20195;-86
2022/11/06 07:46:20;;;;;;;12.90;6.40;;;;;;;;;;5032383;28;20193;-88
2022/11/06 07:48:46;;;;;;;19.63;8.93;;;;;;;;;;5013263;28;20180;-88
2022/11/06 07:51:12;;;;;;;11.83;7.77;;;;;;;;;;5031782;28;20351;-88
2022/11/06 07:53:38;;;;;;;13.67;9.23;;;;;;;;;;5024661;28;20595;-88
2022/11/06 07:56:07;;;;;;;14.03;7.17;;;;;;;;;;5032048;28;20242;-89
2022/11/06 07:58:33;;;;;;;11.83;5.23;;;;;;;;;;5033427;28;20189;-88
2022/11/06 08:00:59;;;;;;;8.77;5.50;;;8.90;99.90;;;;;;5033392;28;20223;-86
2022/11/06 08:03:28;;;;;;;12.90;6.00;;;8.90;99.90;;;;;;5031404;28;20193;-87
2022/11/06 08:05:54;;;;;;;10.67;5.60;;;;;;;;;;5029566;28;20204;-87
2022/11/06 08:08:20;;;;;;;10.83;5.63;;;8.90;99.90;;;;;;5033105;28;20184;-87
2022/11/06 08:10:50;;;;;;;10.03;5.60;;;8.90;99.90;;;;;;5031927;28;20216;-88
2022/11/06 08:13:17;;;;;;;12.17;4.97;;;8.90;99.90;;;;;;5033442;28;20306;-89
2022/11/06 08:15:43;;;;;;;10.77;4.23;;;;;;;;;;5029685;28;20180;-89
2022/11/06 08:18:13;;;;;;;9.90;5.07;;;8.90;99.90;;;;;;5032950;28;20271;-89
2022/11/06 08:20:39;;;;;;;14.93;5.00;;;;;;;;;;5030758;28;20184;-88
2022/11/06 08:23:11;;;;;;;10.37;5.30;;;8.90;99.90;;;;;;5028521;28;20189;-88
2022/11/06 08:25:37;;;;;;;10.90;5.83;;;;;;;;;;5016905;28;20184;-88
2022/11/06 08:28:03;;;;;;;11.93;5.40;;;8.90;99.90;;;;;;5015428;28;20719;-87
2022/11/06 08:30:30;;;;;;;17.13;5.53;;;9.00;99.90;;;;;;5032102;28;20213;-88
2022/11/06 08:33:00;;;;;;;7.67;4.50;;;9.00;99.90;;;;;;5025874;28;20239;-89
2022/11/06 08:35:26;;;;;;;10.80;5.60;;;;;;;;;;5026951;28;20181;-86
2022/11/06 08:37:52;;;;;;;10.03;5.00;;;;;;;;;;5031618;28;20188;-88
2022/11/06 08:40:19;;;;;;;14.83;5.73;;;9.00;99.90;;;;;;5014979;28;20196;-87
2022/11/06 08:42:47;;;;;;;8.83;4.13;;;9.10;99.90;;;;;;5028763;28;20203;-89
2022/11/06 08:45:13;;;;;;;9.73;5.67;;;;;;;;;;5029694;28;20254;-87
2022/11/06 08:47:39;;;;;;;13.80;4.43;;;;;;;;;;5028438;28;20196;-87
2022/11/06 08:50:06;;;;;;;8.07;4.80;;;9.10;99.90;;;;;;5011074;28;20450;-87
2022/11/06 08:52:32;;;;;;;9.00;4.37;;;;;;;;;;5029977;28;20184;-86
2022/11/06 08:54:57;;;;;;;6.93;3.40;;;9.20;99.90;;;;;;5012532;28;20243;-85
2022/11/06 08:57:24;;;;;;;8.83;5.50;;;;;;;;;;5023309;28;20197;-87
2022/11/06 08:59:50;;;;;;;14.20;4.47;;;;;;;;;;5009817;28;20215;-88
2022/11/06 09:02:16;;;;;;;10.07;4.53;;;;;;;;;;5031198;28;20196;-90
2022/11/06 09:04:42;;;;;;;10.63;4.83;;;9.30;99.90;;;;;;5015135;28;20657;-87
2022/11/06 09:07:08;;;;;;;18.07;5.43;;;9.30;99.90;;;;;;5028043;28;20248;-87
2022/11/06 09:09:34;;;;;;;11.27;5.60;;;;;;;;;;5033515;28;20200;-87
2022/11/06 09:12:02;;;;;;;11.93;4.57;;;9.40;99.90;;;;;;5011581;28;20584;-87
2022/11/06 09:14:28;;;;;;;7.13;4.77;;;9.60;99.90;;;;;;5003621;28;20196;-89
2022/11/06 09:16:54;;;;;;;10.17;4.23;;;;;;;;;;5027296;28;20189;-88
2022/11/06 09:19:20;;;;;;;8.00;3.97;;;;;;;;;;5026494;28;20610;-88
2022/11/06 09:21:46;;;;;;;13.37;5.20;;;9.40;99.90;;;;;;5025489;28;20201;-89
2022/11/06 09:24:12;;;;;;;8.70;4.80;;;9.40;99.90;;;;;;5010728;28;20189;-87
2022/11/06 09:26:37;;;;;;;9.63;4.40;;;9.40;99.90;;;;;;5013329;28;20176;-87
2022/11/06 09:29:03;;;;;;;6.07;4.07;;;9.40;99.90;;;;;;5022195;28;20653;-86
2022/11/06 09:31:29;;;;;;;15.87;5.87;;;9.80;99.90;;;;;;5029511;28;20564;-88
2022/11/06 09:33:55;;;;;;;5.70;3.77;;;;;;;;;;5031219;28;20189;-87
2022/11/06 09:36:21;;;;;;;10.80;4.30;;;9.50;99.90;;;;;;5029014;28;20645;-88
2022/11/06 09:38:46;;;;;;;11.07;4.17;;;9.60;99.90;;;;;;5032481;28;20185;-87
2022/11/06 09:41:46;;;;;;;5.33;3.37;;;9.60;99.90;;;;;;5032301;28;20191;-87
2022/11/06 09:44:45;;;;;;;6.47;3.20;;;9.60;99.90;;;;;;5025578;28;20228;-88
2022/11/06 09:47:25;;;;;;;7.50;4.10;;;9.50;99.90;;;;;;5044781;28;20740;-88
2022/11/06 09:49:54;;;;;;;5.90;3.50;;;9.50;99.90;;;;;;5031425;28;20180;-90
2022/11/06 09:52:41;;;;;;;5.53;3.83;;;10.30;99.90;;;;;;5031451;28;20216;-87
2022/11/06 09:55:32;;;;;;;9.10;4.27;;;9.50;99.90;;;;;;5030324;28;20650;-86
2022/11/06 09:58:16;;;;;;;6.87;3.27;;;9.60;99.90;;;;;;5015643;28;20197;-88
2022/11/06 10:00:43;;;;;;;7.30;4.20;;;9.50;99.90;;;;;;5030187;28;20189;-88
2022/11/06 10:03:20;;;;;;;4.73;2.57;;;9.60;99.90;;;;;;5012908;28;20600;-86
2022/11/06 10:05:47;;;;;;;7.40;3.10;;;9.60;99.90;;;;;;5028929;28;20270;-89
2022/11/06 10:08:24;;;;;;;7.43;3.83;;;9.70;99.90;;;;;;5010913;28;20242;-88
2022/11/06 10:11:14;;;;;;;10.53;4.70;;;9.70;99.90;;;;;;5022351;28;20211;-88
2022/11/06 10:14:17;;;;;;;7.37;4.07;;;9.70;99.90;;;;;;5028305;28;20188;-88
2022/11/06 10:17:05;;;;;;;8.13;4.47;;;9.60;99.90;;;;;;5025732;28;20184;-87
2022/11/06 10:19:52;;;;;;;7.17;4.73;;;9.70;99.90;;;;;;5025849;28;20217;-88
2022/11/06 10:22:47;;;;;;;7.00;3.93;;;9.60;99.90;;;;;;5023839;28;20192;-88
2022/11/06 10:25:18;;;;;;;5.73;3.00;;;9.60;99.90;;;;;;5025115;28;20650;-86
2022/11/06 10:28:10;;;;;;;5.23;2.70;;;9.70;99.90;;;;;;5025511;28;20181;-87
2022/11/06 10:31:04;;;;;;;7.83;3.60;;;9.70;99.90;;;;;;5010214;28;20220;-87
2022/11/06 10:33:54;;;;;;;5.77;3.50;;;9.70;99.90;;;;;;5034507;28;20649;-86
2022/11/06 10:36:38;;;;;;;7.27;2.93;;;9.70;99.90;;;;;;5043371;28;20214;-87
2022/11/06 10:39:15;;;;;;;7.47;3.40;;;9.80;99.90;;;;;;5040206;28;20191;-88
2022/11/06 10:41:45;;;;;;;13.67;3.93;;;10.00;99.90;;;;;;5038824;28;20327;-86
2022/11/06 10:44:24;;;;;;;5.03;3.17;;;10.10;99.90;;;;;;5049773;28;20222;-87
2022/11/06 10:47:09;;;;;;;9.47;4.57;;;10.10;99.90;;;;;;5057282;28;20181;-88
2022/11/06 10:49:45;;;;;;;13.07;3.40;;;10.10;99.90;;;;;;5058519;28;20180;-87
2022/11/06 10:52:39;;;;;;;7.43;3.63;;;10.10;99.90;;;;;;5058001;28;20236;-87
2022/11/06 10:55:30;;;;;;;7.03;3.20;;;10.10;99.90;;;;;;5063890;28;20262;-89
2022/11/06 10:58:04;;;;;;;4.22;3.13;;;10.20;99.90;;;;;;5048453;28;20205;-91
2022/11/06 11:00:31;;;;;;;9.00;3.33;;;10.60;99.90;;;;;;5049531;28;20230;-91
2022/11/06 11:03:04;;;;;;;5.43;2.40;;;10.90;99.90;;;;;;5036255;28;20253;-88
2022/11/06 11:05:39;;;;;;;5.93;3.50;;;9.50;99.90;;;;;;5050962;28;20181;-89
2022/11/06 11:08:05;;;;;;;8.17;2.67;;;10.20;99.90;;;;;;5033670;28;20598;-87
2022/11/06 11:10:35;;;;;;;6.50;2.45;;;10.20;99.90;;;;;;5031798;28;20188;-87
2022/11/06 11:13:03;;;;;;;9.37;2.87;;;9.90;99.90;;;;;;5024638;28;20545;-88
2022/11/06 11:15:43;;;;;;;3.30;1.93;;;10.20;99.90;;;;;;5027629;28;20571;-87
2022/11/06 11:18:12;;;;;;;4.53;2.67;;;10.20;99.90;;;;;;5024314;28;20181;-86
2022/11/06 11:20:46;;;;;;;16.40;4.38;;;10.20;99.90;;;;;;5027481;28;20176;-85
2022/11/06 11:23:24;;;;;;;8.23;2.87;;;10.30;99.90;;;;;;5027078;28;20207;-85
2022/11/06 11:26:13;;;;;;;6.03;2.80;;;10.20;99.90;;;;;;5042663;28;20196;-86
2022/11/06 11:28:40;;;;;;;5.18;3.05;;;10.30;99.90;;;;;;5014844;28;20236;-85
2022/11/06 11:31:15;;;;;;;6.70;2.53;;;10.30;99.90;;;;;;5031145;28;20212;-87
2022/11/06 11:33:49;;;;;;;7.97;3.38;;;10.40;99.90;;;;;;5035198;28;20242;-88
2022/11/06 11:36:18;;;;;;;10.23;3.17;;;10.40;99.90;;;;;;5026795;28;20183;-89
2022/11/06 11:38:44;;;;;;;4.60;2.22;;;10.40;99.90;;;;;;5011703;28;20223;-88
2022/11/06 11:41:20;;;;;;;16.83;4.22;;;10.50;99.90;;;;;;4994924;28;20216;-88
2022/11/06 11:44:10;;;;;;;3.20;2.45;;;10.50;99.90;;;;;;5025531;28;20193;-90
2022/11/06 11:46:57;;;;;;;3.75;1.88;;;10.50;99.90;;;;;;5025055;28;20201;-88
2022/11/06 11:49:31;;;;;;;5.55;2.45;;;10.50;99.90;;;;;;5014736;28;20259;-86
2022/11/06 11:52:03;;;;;;;8.27;2.70;;;10.60;99.90;;;;;;4996783;28;20212;-86
2022/11/06 11:54:36;;;;;;;3.67;2.40;;;10.60;99.90;;;;;;5033125;28;20250;-86
2022/11/06 11:57:05;;;;;;;7.40;1.90;;;10.60;99.90;;;;;;5054397;28;20683;-86
2022/11/06 11:59:44;;;;;;;4.73;2.03;;;10.40;99.90;;;;;;5053299;28;20264;-86
2022/11/06 12:02:21;;;;;;;3.83;2.30;;;10.40;99.90;;;;;;5054033;28;20167;-86
2022/11/06 12:04:51;;;;;;;4.60;3.03;;;10.30;99.90;;;;;;5037699;28;20271;-86
2022/11/06 12:07:27;;;;;;;5.45;2.63;;;10.30;99.90;;;;;;5018416;28;20176;-87
2022/11/06 12:09:53;;;;;;;7.77;3.20;;;10.30;99.90;;;;;;5016788;28;20186;-87
2022/11/06 12:12:32;;;;;;;4.50;2.07;;;10.20;99.90;;;;;;4983924;28;20212;-87
2022/11/06 12:15:28;;;;;;;5.60;2.97;;;10.20;99.90;;;;;;5012102;28;20183;-87
2022/11/06 12:18:03;;;;;;;4.53;2.47;;;10.20;99.90;;;;;;5032726;28;20221;-87
2022/11/06 12:20:36;;;;;;;5.40;2.58;;;10.30;99.90;;;;;;5023273;28;20680;-87
2022/11/06 12:23:03;;;;;;;6.65;3.33;;;10.30;99.90;;;;;;5037759;28;20184;-87
2022/11/06 12:25:38;;;;;;;7.68;2.92;;;10.50;99.90;;;;;;5055450;28;20194;-87
2022/11/06 12:28:11;;;;;;;5.22;2.58;;;10.30;99.90;;;;;;5034562;28;20195;-87
2022/11/06 12:30:41;;;;;;;11.95;3.22;;;10.30;99.90;;;;;;5053117;28;20719;-90
2022/11/06 12:33:19;;;;;;;4.00;2.10;;;10.30;99.90;;;;;;5018581;28;20172;-87
2022/11/06 12:35:57;;;;;;;6.35;2.35;;;10.20;99.90;;;;;;5069149;28;20240;-89
2022/11/06 12:38:45;;;;;;;7.60;3.17;;;10.10;99.90;;;;;;5062984;28;20183;-89
2022/11/06 12:41:34;;;;;;;5.17;2.47;;;10.20;99.90;;;;;;5059017;28;20192;-86
2022/11/06 12:44:00;;;;;;;3.27;2.03;;;10.10;99.90;;;;;;5042344;28;20179;-87
2022/11/06 12:46:52;;;;;;;7.63;2.53;;;10.00;99.90;;;;;;5018261;28;20218;-85
2022/11/06 12:49:26;;;;;;;4.68;2.33;;;10.00;99.90;;;;;;5024012;28;20184;-86
2022/11/06 12:52:16;;;;;;;3.07;2.07;;;10.10;99.90;;;;;;5025482;28;20212;-86
2022/11/06 12:54:59;;;;;;;4.23;1.97;;;10.10;99.90;;;;;;5033100;28;20706;-89
2022/11/06 12:57:50;;;;;;;5.23;2.20;;;10.10;99.90;;;;;;5046706;28;20631;-86
2022/11/06 13:00:21;;;;;;;6.90;1.90;;;9.50;99.90;;;;;;5045998;28;20188;-87
2022/11/06 13:03:27;;;;;;;3.70;1.93;;;10.20;99.90;;;;;;5027618;28;20180;-88
2022/11/06 13:06:03;;;;;;;3.53;1.97;;;10.20;99.90;;;;;;5048020;28;20188;-90
2022/11/06 13:09:00;;;;;;;2.67;2.10;;;10.30;99.90;;;;;;5041410;28;20183;-90
2022/11/06 13:11:56;;;;;;;2.97;1.77;;;10.50;99.90;;;;;;5029140;28;20215;-90
2022/11/06 13:14:37;;;;;;;6.60;2.67;;;10.50;99.90;;;;;;5028412;28;20168;-88
2022/11/06 13:17:20;;;;;;;13.67;5.03;;;10.60;99.90;;;;;;5026964;28;20203;-89
2022/11/06 13:20:07;;;;;;;10.65;4.38;;;10.80;99.90;;;;;;5027266;28;20202;-90
2022/11/06 13:22:59;;;;;;;8.57;4.57;;;10.80;99.90;;;;;;5032770;28;20184;-88
2022/11/06 13:25:39;;;;;;;3.72;1.83;;;11.30;99.90;;;;;;5029984;28;20176;-90
2022/11/06 13:28:07;;;;;;;5.63;2.03;;;10.80;99.90;;;;;;5035489;28;20685;-87
2022/11/06 13:30:37;;;;;;;4.53;2.00;;;10.70;99.90;;;;;;5034858;28;20198;-88
2022/11/06 13:33:36;;;;;;;5.97;3.70;;;10.70;99.90;;;;;;5034721;28;20241;-88
2022/11/06 13:36:06;;;;;;;7.95;4.05;;;10.60;99.90;;;;;;5014698;28;20192;-89
2022/11/06 13:38:46;;;;;;;7.15;3.55;;;10.50;99.90;;;;;;5015264;28;20176;-88
2022/11/06 13:41:18;;;;;;;10.20;3.58;;;10.40;99.90;;;;;;5015392;28;20238;-89
2022/11/06 13:43:51;;;;;;;16.27;7.72;;;10.40;99.90;;;;;;5028852;28;20664;-89
2022/11/06 13:46:47;;;;;;;29.77;12.48;;;10.30;99.90;;;;;;5032723;28;20179;-90
2022/11/06 13:49:28;;;;;;;21.95;9.27;;;10.30;99.90;;;;;;5034000;28;20249;-89
2022/11/06 13:52:00;;;;;;;38.22;16.23;;;10.10;99.90;;;;;;5049914;28;20203;-89
2022/11/06 13:54:51;;;;;;;28.92;11.18;;;10.10;99.90;;;;;;5021976;28;20180;-89
2022/11/06 13:57:47;;;;;;;16.13;8.97;;;10.20;99.90;;;;;;5025212;28;20245;-89